createdAt,value
2024-01-24T00:01:21.550Z,100980.13
2024-01-24T00:03:48.529Z,100972.78
2024-01-24T00:06:15.133Z,100951.00
2024-01-24T00:08:41.885Z,100944.69
2024-01-24T00:11:08.372Z,100933.38
2024-01-24T00:13:35.066Z,100917.22
2024-01-24T00:16:01.591Z,100907.09
2024-01-24T00:18:28.261Z,100898.19
2024-01-24T00:20:55.400Z,100892.31
2024-01-24T00:23:22.078Z,100872.88
2024-01-24T00:25:48.580Z,100861.78
2024-01-24T00:28:18.406Z,100859.19
2024-01-24T00:30:45.255Z,100853.81
2024-01-24T00:33:12.150Z,100866.47
2024-01-24T00:35:40.275Z,100852.72
2024-01-24T00:38:06.938Z,100838.59
2024-01-24T00:40:33.456Z,100820.63
2024-01-24T00:43:00.185Z,100802.53
2024-01-24T00:45:27.613Z,100794.41
2024-01-24T00:47:54.286Z,100796.56
2024-01-24T00:50:20.873Z,100788.41
2024-01-24T00:52:52.804Z,100773.72
2024-01-24T00:55:20.800Z,100751.91
2024-01-24T00:57:47.340Z,100748.41
2024-01-24T01:00:14.326Z,100732.25
2024-01-24T01:02:40.881Z,100729.19
2024-01-24T01:05:09.043Z,100707.63
2024-01-24T01:07:35.620Z,100677.09
2024-01-24T01:10:02.278Z,100669.72
2024-01-24T01:12:28.828Z,100675.69
2024-01-24T01:14:55.425Z,100666.56
2024-01-24T01:17:21.934Z,100659.03
2024-01-24T01:19:48.450Z,100651.53
2024-01-24T01:22:15.916Z,100634.09
2024-01-24T01:24:42.453Z,100642.16
2024-01-24T01:27:09.963Z,100631.22
2024-01-24T01:29:36.814Z,100627.19
2024-01-24T01:32:03.634Z,100626.81
2024-01-24T01:34:30.361Z,100611.66
2024-01-24T01:36:57.057Z,100602.34
2024-01-24T01:39:23.674Z,100592.28
2024-01-24T01:41:50.404Z,100590.34
2024-01-24T01:44:17.042Z,100584.56
2024-01-24T01:46:46.163Z,100571.13
2024-01-24T01:49:14.043Z,100563.28
2024-01-24T01:51:42.623Z,100560.41
2024-01-24T01:54:10.275Z,100542.66
2024-01-24T01:56:37.300Z,100556.56
2024-01-24T01:59:04.052Z,100549.47
2024-01-24T02:01:30.650Z,100546.78
2024-01-24T02:03:57.837Z,100529.50
2024-01-24T02:13:58.465Z,100487.34
2024-01-24T02:16:24.973Z,100495.03
2024-01-24T02:18:51.721Z,100488.72
2024-01-24T02:21:18.405Z,100489.91
2024-01-24T02:23:46.247Z,100487.09
2024-01-24T02:26:12.880Z,100494.53
2024-01-24T02:28:39.395Z,100490.38
2024-01-24T02:31:05.924Z,100465.41
2024-01-24T02:33:32.556Z,100461.69
2024-01-24T02:35:59.304Z,100455.34
2024-01-24T02:38:25.807Z,100458.03
2024-01-24T02:40:52.309Z,100446.31
2024-01-24T02:43:18.821Z,100448.91
2024-01-24T02:45:45.359Z,100436.69
2024-01-24T02:48:12.206Z,100428.53
2024-01-24T02:50:38.760Z,100413.34
2024-01-24T02:53:05.262Z,100402.94
2024-01-24T02:55:31.899Z,100403.72
2024-01-24T02:57:58.617Z,100408.00
2024-01-24T03:00:25.229Z,100382.50
2024-01-24T03:02:52.267Z,100385.41
2024-01-24T03:05:19.064Z,100381.09
2024-01-24T03:07:45.789Z,100388.06
2024-01-24T03:10:13.667Z,100390.69
2024-01-24T03:12:40.230Z,100380.53
2024-01-24T03:15:07.294Z,100380.13
2024-01-24T03:17:34.023Z,100370.22
2024-01-24T03:20:00.963Z,100371.47
2024-01-24T03:22:27.797Z,100377.38
2024-01-24T03:24:54.383Z,100389.13
2024-01-24T03:27:20.948Z,100381.38
2024-01-24T03:29:47.461Z,100384.06
2024-01-24T03:32:14.154Z,100367.25
2024-01-24T03:34:40.703Z,100370.59
2024-01-24T03:37:07.711Z,100375.88
2024-01-24T03:39:34.360Z,100360.56
2024-01-24T03:42:01.025Z,100354.84
2024-01-24T03:44:27.648Z,100352.69
2024-01-24T03:46:54.154Z,100351.59
2024-01-24T03:49:22.901Z,100357.94
2024-01-24T03:51:49.851Z,100339.53
2024-01-24T03:54:16.568Z,100339.13
2024-01-24T03:56:43.452Z,100339.13
2024-01-24T03:59:10.150Z,100335.78
2024-01-24T04:01:36.816Z,100329.19
2024-01-24T04:04:03.743Z,100327.34
2024-01-24T04:06:30.457Z,100302.75
2024-01-24T04:08:57.277Z,100288.44
2024-01-24T04:11:23.921Z,100294.22
2024-01-24T04:13:57.712Z,100289.94
2024-01-24T04:16:24.419Z,100294.84
2024-01-24T04:18:54.181Z,100275.41
2024-01-24T04:21:20.858Z,100274.56
2024-01-24T04:23:47.404Z,100271.88
2024-01-24T04:26:13.972Z,100273.28
2024-01-24T04:28:40.482Z,100238.03
2024-01-24T04:34:57.907Z,100240.47
2024-01-24T04:37:25.106Z,100248.31
2024-01-24T04:39:53.498Z,100238.53
2024-01-24T04:42:20.389Z,100251.63
2024-01-24T04:44:47.059Z,100239.16
2024-01-24T04:47:16.721Z,100236.22
2024-01-24T04:49:45.495Z,100240.91
2024-01-24T04:52:13.245Z,100235.84
2024-01-24T04:54:39.990Z,100225.06
2024-01-24T04:57:06.617Z,100220.19
2024-01-24T04:59:42.482Z,100210.63
2024-01-24T05:02:17.328Z,100207.19
2024-01-24T05:04:44.132Z,100202.00
2024-01-24T05:07:10.988Z,100214.88
2024-01-24T05:09:37.567Z,100220.38
2024-01-24T05:12:04.385Z,100201.13
2024-01-24T05:14:30.891Z,100189.25
2024-01-24T05:16:57.372Z,100200.28
2024-01-24T05:19:23.917Z,100206.88
2024-01-24T05:21:50.633Z,100208.34
2024-01-24T05:24:17.422Z,100199.00
2024-01-24T05:26:47.121Z,100210.41
2024-01-24T05:29:13.759Z,100195.69
2024-01-24T05:31:41.240Z,100175.47
2024-01-24T05:34:09.344Z,100175.47
2024-01-24T05:36:37.074Z,100171.53
2024-01-24T05:39:08.303Z,100183.28
2024-01-24T05:41:36.790Z,100173.88
2024-01-24T05:44:03.533Z,100171.91
2024-01-24T05:46:30.040Z,100170.50
2024-01-24T05:48:57.612Z,100156.25
2024-01-24T05:51:24.283Z,100156.09
2024-01-24T05:53:50.864Z,100159.41
2024-01-24T05:56:17.478Z,100150.34
2024-01-24T05:58:44.023Z,100150.53
2024-01-24T06:01:12.387Z,100157.13
2024-01-24T06:03:39.076Z,100158.84
2024-01-24T06:06:06.635Z,100136.63
2024-01-24T06:08:33.315Z,100135.78
2024-01-24T06:11:00.368Z,100137.03
2024-01-24T06:13:28.698Z,100125.59
2024-01-24T06:15:56.169Z,100126.13
2024-01-24T06:18:23.044Z,100140.59
2024-01-24T06:20:49.819Z,100111.50
2024-01-24T06:23:16.530Z,100134.47
2024-01-24T06:25:43.441Z,100163.31
2024-01-24T06:28:10.467Z,100146.44
2024-01-24T06:30:37.091Z,100131.00
2024-01-24T06:33:03.847Z,100128.16
2024-01-24T06:35:32.374Z,100124.91
2024-01-24T06:37:59.110Z,100112.88
2024-01-24T06:40:25.831Z,100114.44
2024-01-24T06:42:52.667Z,100108.31
2024-01-24T06:45:19.947Z,100122.53
2024-01-24T06:47:46.856Z,100126.56
2024-01-24T06:50:14.958Z,100122.59
2024-01-24T06:52:42.030Z,100134.88
2024-01-24T06:55:09.917Z,100140.84
2024-01-24T06:57:36.849Z,100143.69
2024-01-24T07:00:06.246Z,100138.84
2024-01-24T07:02:33.473Z,100150.78
2024-01-24T07:05:00.153Z,100154.22
2024-01-24T07:07:26.971Z,100163.34
2024-01-24T07:09:53.628Z,100248.69
2024-01-24T07:12:21.763Z,100246.72
2024-01-24T07:14:52.602Z,100252.66
2024-01-24T07:17:19.848Z,100262.03
2024-01-24T07:19:46.538Z,100270.22
2024-01-24T07:22:13.942Z,100246.19
2024-01-24T07:24:45.507Z,100253.44
2024-01-24T07:27:12.498Z,100262.31
2024-01-24T07:29:39.708Z,100260.88
2024-01-24T07:32:06.815Z,100260.75
2024-01-24T07:34:33.506Z,100258.19
2024-01-24T07:37:00.229Z,100225.50
2024-01-24T07:39:26.792Z,100238.44
2024-01-24T07:41:53.439Z,100231.69
2024-01-24T07:44:21.203Z,100226.00
2024-01-24T07:46:47.820Z,100226.28
2024-01-24T07:49:14.695Z,100233.91
2024-01-24T07:51:46.524Z,100229.97
2024-01-24T07:54:14.123Z,100232.28
2024-01-24T07:56:40.787Z,100233.41
2024-01-24T07:59:09.270Z,100234.38
2024-01-24T08:01:37.163Z,100235.72
2024-01-24T08:04:04.542Z,100239.06
2024-01-24T08:06:31.413Z,100240.50
2024-01-24T08:08:58.154Z,100245.63
2024-01-24T08:11:26.097Z,100244.19
2024-01-24T08:13:53.348Z,100250.72
2024-01-24T08:16:20.302Z,100257.22
2024-01-24T08:18:47.205Z,100246.63
2024-01-24T08:21:14.700Z,100257.44
2024-01-24T08:23:48.816Z,100250.31
2024-01-24T08:26:18.102Z,100242.22
2024-01-24T08:28:44.796Z,100233.47
2024-01-24T08:31:12.081Z,100238.28
2024-01-24T08:33:39.458Z,100229.63
2024-01-24T08:36:06.651Z,100225.00
2024-01-24T08:38:33.279Z,100225.78
2024-01-24T08:41:00.761Z,100228.13
2024-01-24T08:43:27.340Z,100232.66
2024-01-24T08:45:53.963Z,100253.03
2024-01-24T08:48:22.916Z,100262.34
2024-01-24T08:50:49.685Z,100283.22
2024-01-24T08:53:16.246Z,100303.41
2024-01-24T08:55:43.007Z,100312.38
2024-01-24T08:58:10.820Z,100362.69
2024-01-24T09:00:38.007Z,100342.44
2024-01-24T09:03:05.039Z,100355.00
2024-01-24T09:05:32.611Z,100366.09
2024-01-24T09:07:59.213Z,100367.81
2024-01-24T09:10:26.508Z,100359.63
2024-01-24T09:12:53.222Z,100343.44
2024-01-24T09:15:20.092Z,100353.28
2024-01-24T09:17:46.849Z,100374.72
2024-01-24T09:20:13.634Z,100352.78
2024-01-24T09:22:40.418Z,100339.53
2024-01-24T09:25:08.854Z,100319.28
2024-01-24T09:27:36.835Z,100324.56
2024-01-24T09:30:05.375Z,100330.91
2024-01-24T09:32:32.008Z,100331.63
2024-01-24T09:34:59.009Z,100341.69
2024-01-24T09:37:25.954Z,100357.97
2024-01-24T09:39:55.420Z,100367.88
2024-01-24T09:42:26.537Z,100347.00
2024-01-24T09:44:54.925Z,100346.47
2024-01-24T09:47:25.186Z,100355.97
2024-01-24T09:49:52.353Z,100358.88
2024-01-24T09:52:25.053Z,100352.91
2024-01-24T09:54:57.590Z,100354.69
2024-01-24T09:57:26.236Z,100345.06
2024-01-24T09:59:55.172Z,100358.59
2024-01-24T10:02:22.112Z,100356.00
2024-01-24T10:04:52.188Z,100345.13
2024-01-24T10:07:20.286Z,100345.88
2024-01-24T10:09:48.068Z,100340.84
2024-01-24T10:12:14.707Z,100346.22
2024-01-24T10:14:44.073Z,100353.91
2024-01-24T10:17:12.489Z,100346.00
2024-01-24T10:19:39.519Z,100339.09
2024-01-24T10:22:09.411Z,100346.47
2024-01-24T10:24:37.602Z,100367.78
2024-01-24T10:27:04.508Z,100358.25
2024-01-24T10:29:32.012Z,100337.59
2024-01-24T10:31:59.155Z,100364.41
2024-01-24T10:34:29.373Z,100362.09
2024-01-24T10:36:56.342Z,100357.56
2024-01-24T10:39:26.076Z,100342.81
2024-01-24T10:41:55.954Z,100347.41
2024-01-24T10:44:26.704Z,100367.81
2024-01-24T10:46:53.495Z,100361.84
2024-01-24T10:49:22.703Z,100375.56
2024-01-24T10:51:49.771Z,100364.81
2024-01-24T10:54:18.711Z,100368.28
2024-01-24T10:56:50.098Z,100373.53
2024-01-24T10:59:18.954Z,100377.19
2024-01-24T11:01:46.454Z,100369.03
2024-01-24T11:04:17.745Z,100384.44
2024-01-24T11:07:03.173Z,100396.69
2024-01-24T11:09:47.145Z,100390.44
2024-01-24T11:12:13.865Z,100391.84
2024-01-24T11:14:46.250Z,100403.81
2024-01-24T11:17:16.005Z,100410.63
2024-01-24T11:19:43.960Z,100398.66
2024-01-24T11:22:20.117Z,100399.19
2024-01-24T11:24:54.438Z,100412.75
2024-01-24T11:27:25.248Z,100422.59
2024-01-24T11:29:55.839Z,100407.22
2024-01-24T11:32:56.971Z,100419.66
2024-01-24T11:35:42.496Z,100416.69
2024-01-24T11:38:25.588Z,100425.81
2024-01-24T11:41:11.568Z,100410.13
2024-01-24T11:43:40.942Z,100393.44
2024-01-24T11:46:10.217Z,100421.81
2024-01-24T11:48:39.853Z,100417.09
2024-01-24T11:51:11.067Z,100442.28
2024-01-24T11:53:38.101Z,100412.66
2024-01-24T11:56:23.795Z,100429.91
2024-01-24T11:58:52.022Z,100433.09
2024-01-24T12:01:18.745Z,100408.44
2024-01-24T12:03:49.841Z,100438.94
2024-01-24T12:06:18.094Z,100431.69
2024-01-24T12:08:49.599Z,100438.56
2024-01-24T12:11:18.337Z,100426.47
2024-01-24T12:13:45.908Z,100409.03
2024-01-24T12:16:18.506Z,100420.72
2024-01-24T12:18:45.364Z,100443.56
2024-01-24T12:21:12.397Z,100426.06
2024-01-24T12:23:39.124Z,100443.56
2024-01-24T12:26:05.833Z,100445.88
2024-01-24T12:28:32.683Z,100447.81
2024-01-24T12:30:59.790Z,100445.25
2024-01-24T12:33:34.137Z,100438.41
2024-01-24T12:36:06.592Z,100458.06
2024-01-24T12:38:36.120Z,100455.00
2024-01-24T12:41:02.849Z,100459.66
2024-01-24T12:43:29.470Z,100447.97
2024-01-24T12:45:56.621Z,100461.47
2024-01-24T12:48:24.728Z,100449.13
2024-01-24T12:50:52.762Z,100457.25
2024-01-24T12:53:22.265Z,100458.50
2024-01-24T12:55:49.219Z,100463.03
2024-01-24T12:58:18.775Z,100446.25
2024-01-24T13:00:45.776Z,100463.66
2024-01-24T13:03:12.482Z,100465.63
2024-01-24T13:05:46.398Z,100440.84
2024-01-24T13:08:15.286Z,100471.94
2024-01-24T13:10:46.557Z,100480.09
2024-01-24T13:13:14.434Z,100470.88
2024-01-24T13:15:41.825Z,100474.00
2024-01-24T13:18:09.860Z,100478.72
2024-01-24T13:20:36.864Z,100493.69
2024-01-24T13:23:03.466Z,100480.94
2024-01-24T13:25:30.404Z,100488.53
2024-01-24T13:27:57.592Z,100488.53
2024-01-24T13:30:24.290Z,100503.22
2024-01-24T13:32:51.044Z,100498.19
2024-01-24T13:35:18.345Z,100495.50
2024-01-24T13:37:45.004Z,100493.91
2024-01-24T13:40:13.185Z,100502.63
2024-01-24T13:42:40.840Z,100501.63
2024-01-24T13:45:08.036Z,100512.88
2024-01-24T13:47:34.975Z,100514.69
2024-01-24T13:50:02.077Z,100524.94
2024-01-24T13:52:29.162Z,100530.59
2024-01-24T13:54:55.855Z,100515.31
2024-01-24T13:57:22.627Z,100513.44
2024-01-24T13:59:49.754Z,100550.84
2024-01-24T14:02:16.636Z,100531.88
2024-01-24T14:04:44.195Z,100529.69
2024-01-24T14:07:11.848Z,100538.16
2024-01-24T14:09:40.483Z,100532.16
2024-01-24T14:12:07.734Z,100526.75
2024-01-24T14:14:34.460Z,100526.75
2024-01-24T14:17:01.110Z,100539.81
2024-01-24T14:19:27.782Z,100532.47
2024-01-24T14:21:54.566Z,100537.56
2024-01-24T14:24:21.506Z,100553.06
2024-01-24T14:26:49.837Z,100538.81
2024-01-24T14:29:16.794Z,100534.16
2024-01-24T14:31:43.569Z,100552.50
2024-01-24T14:34:10.617Z,100537.72
2024-01-24T14:36:38.257Z,100552.97
2024-01-24T14:39:05.721Z,100567.00
2024-01-24T14:41:32.511Z,100575.34
2024-01-24T14:43:59.181Z,100565.28
2024-01-24T14:46:26.730Z,100571.91
2024-01-24T14:48:53.857Z,100568.72
2024-01-24T14:51:21.212Z,100578.56
2024-01-24T14:53:48.105Z,100575.13
2024-01-24T14:56:15.504Z,100595.53
2024-01-24T14:58:42.833Z,100604.16
2024-01-24T15:01:10.284Z,100597.41
2024-01-24T15:03:37.913Z,100594.94
2024-01-24T15:06:05.269Z,100606.88
2024-01-24T15:08:31.924Z,100605.16
2024-01-24T15:10:58.735Z,100606.88
2024-01-24T15:13:26.079Z,100609.13
2024-01-24T15:15:52.791Z,100616.50
2024-01-24T15:18:20.513Z,100617.63
2024-01-24T15:20:57.741Z,100607.19
2024-01-24T15:23:33.263Z,100639.16
2024-01-24T15:25:59.858Z,100624.41
2024-01-24T15:28:27.207Z,100649.00
2024-01-24T15:30:53.960Z,100643.09
2024-01-24T15:33:20.735Z,100633.97
2024-01-24T15:35:49.554Z,100629.94
2024-01-24T15:38:17.100Z,100641.13
2024-01-24T15:40:43.748Z,100643.13
2024-01-24T15:43:11.832Z,100632.28
2024-01-24T15:45:38.621Z,100642.50
2024-01-24T15:48:05.722Z,100645.06
2024-01-24T15:50:32.540Z,100653.94
2024-01-24T15:52:59.074Z,100650.47
2024-01-24T15:55:25.674Z,100660.34
2024-01-24T15:57:52.445Z,100673.22
2024-01-24T16:00:21.126Z,100659.56
2024-01-24T16:02:48.146Z,100645.06
2024-01-24T16:05:49.978Z,100664.75
2024-01-24T16:08:18.149Z,100666.38
2024-01-24T16:10:45.525Z,100678.28
2024-01-24T16:13:12.216Z,100667.22
2024-01-24T16:15:39.283Z,100680.63
2024-01-24T16:18:06.284Z,100688.22
2024-01-24T16:20:33.964Z,100690.06
2024-01-24T16:23:01.018Z,100694.28
2024-01-24T16:25:27.933Z,100707.81
2024-01-24T16:27:55.788Z,100696.00
2024-01-24T16:30:28.597Z,100695.75
2024-01-24T16:32:56.290Z,100706.56
2024-01-24T16:35:23.598Z,100701.41
2024-01-24T16:37:50.355Z,100716.16
2024-01-24T16:40:17.051Z,100713.97
2024-01-24T16:42:43.727Z,100719.38
2024-01-24T16:45:12.638Z,100715.91
2024-01-24T16:47:40.223Z,100728.94
2024-01-24T16:50:07.821Z,100725.50
2024-01-24T16:52:34.561Z,100722.41
2024-01-24T16:55:01.608Z,100736.78
2024-01-24T16:57:29.348Z,100743.91
2024-01-24T16:59:58.338Z,100740.47
2024-01-24T17:02:34.162Z,100756.94
2024-01-24T17:05:06.504Z,100756.81
2024-01-24T17:07:33.325Z,100757.81
2024-01-24T17:10:01.369Z,100768.09
2024-01-24T17:12:29.407Z,100755.91
2024-01-24T17:14:56.543Z,100772.50
2024-01-24T17:17:23.215Z,100759.59
2024-01-24T17:19:49.843Z,100751.84
2024-01-24T17:22:17.295Z,100756.88
2024-01-24T17:24:44.114Z,100802.78
2024-01-24T17:27:10.820Z,100759.81
2024-01-24T17:29:39.342Z,100805.94
2024-01-24T17:32:06.219Z,100787.91
2024-01-24T17:34:32.929Z,100782.16
2024-01-24T17:36:59.621Z,100773.19
2024-01-24T17:39:26.385Z,100787.03
2024-01-24T17:41:53.247Z,100797.38
2024-01-24T17:44:19.812Z,100779.34
2024-01-24T17:46:46.537Z,100798.81
2024-01-24T17:49:13.228Z,100825.59
2024-01-24T17:51:39.878Z,100810.75
2024-01-24T17:54:06.579Z,100807.78
2024-01-24T17:56:34.248Z,100812.97
2024-01-24T17:59:01.808Z,100826.56
2024-01-24T18:01:29.301Z,100821.19
2024-01-24T18:03:56.288Z,100808.91
2024-01-24T18:06:22.992Z,100807.91
2024-01-24T18:08:50.469Z,100819.94
2024-01-24T18:11:17.245Z,100817.25
2024-01-24T18:13:43.895Z,100813.69
2024-01-24T18:16:12.593Z,100827.28
2024-01-24T18:18:39.545Z,100817.25
2024-01-24T18:21:08.526Z,100829.00
2024-01-24T18:23:36.615Z,100834.06
2024-01-24T18:26:03.171Z,100826.53
2024-01-24T18:28:29.750Z,100847.03
2024-01-24T18:30:56.727Z,100855.38
2024-01-24T18:33:23.560Z,100857.97
2024-01-24T18:35:50.451Z,100854.53
2024-01-24T18:38:19.055Z,100873.19
2024-01-24T18:40:45.582Z,100872.91
2024-01-24T18:43:12.181Z,100894.84
2024-01-24T18:45:38.964Z,100876.94
2024-01-24T18:48:07.576Z,100875.34
2024-01-24T18:50:34.303Z,100878.25
2024-01-24T18:53:02.127Z,100887.84
2024-01-24T18:55:28.791Z,100889.03
2024-01-24T18:57:55.375Z,100893.06
2024-01-24T19:00:22.784Z,100900.06
2024-01-24T19:02:50.834Z,100900.63
2024-01-24T19:05:23.665Z,100899.34
2024-01-24T19:07:57.809Z,100906.69
2024-01-24T19:10:25.381Z,100911.28
2024-01-24T19:12:52.770Z,100922.22
2024-01-24T19:15:21.003Z,100914.19
2024-01-24T19:17:48.456Z,100922.88
2024-01-24T19:20:16.084Z,100919.72
2024-01-24T19:22:43.826Z,100920.94
2024-01-24T19:25:10.398Z,100920.19
2024-01-24T19:27:37.082Z,100911.00
2024-01-24T19:30:04.046Z,100893.56
2024-01-24T19:32:35.446Z,100913.84
2024-01-24T19:35:04.367Z,100912.13
2024-01-24T19:37:33.429Z,100909.81
2024-01-24T19:40:00.534Z,100911.91
2024-01-24T19:42:28.345Z,100930.66
2024-01-24T19:44:56.070Z,100904.44
2024-01-24T19:47:28.904Z,100913.50
2024-01-24T19:49:58.730Z,100913.50
2024-01-24T19:52:25.312Z,100915.22
2024-01-24T19:54:52.053Z,100906.63
2024-01-24T19:57:19.424Z,100933.50
2024-01-24T19:59:46.073Z,100915.56
2024-01-24T20:02:12.611Z,100915.56
2024-01-24T20:04:39.126Z,100923.56
2024-01-24T20:07:05.834Z,100930.38
2024-01-24T20:09:33.285Z,100924.00
2024-01-24T20:11:59.906Z,100938.00
2024-01-24T20:14:26.440Z,100920.31
2024-01-24T20:16:54.138Z,100929.16
2024-01-24T20:19:20.954Z,100926.88
2024-01-24T20:21:48.293Z,100904.31
2024-01-24T20:24:15.730Z,100921.13
2024-01-24T20:26:42.246Z,100925.16
2024-01-24T20:29:09.787Z,100925.91
2024-01-24T20:31:36.334Z,100925.91
2024-01-24T20:34:03.807Z,100943.19
2024-01-24T20:36:30.837Z,100934.34
2024-01-24T20:38:57.610Z,100942.13
2024-01-24T20:41:24.968Z,100934.78
2024-01-24T20:43:52.565Z,100946.09
2024-01-24T20:46:19.181Z,100949.03
2024-01-24T20:48:46.038Z,100959.50
2024-01-24T20:51:13.927Z,100965.66
2024-01-24T20:53:40.571Z,100962.94
2024-01-24T20:56:07.463Z,100959.81
2024-01-24T20:58:34.680Z,100963.50
2024-01-24T21:01:05.158Z,100952.06
2024-01-24T21:03:34.472Z,100948.72
2024-01-24T21:06:01.359Z,100958.75
2024-01-24T21:08:27.996Z,100958.75
2024-01-24T21:10:59.980Z,100962.75
2024-01-24T21:13:30.016Z,100958.53
2024-01-24T21:15:56.736Z,100957.34
2024-01-24T21:18:23.669Z,100957.66
2024-01-24T21:20:50.915Z,100958.19
2024-01-24T21:23:17.890Z,100970.63
2024-01-24T21:25:44.466Z,100961.22
2024-01-24T21:28:11.020Z,100953.78
2024-01-24T21:30:37.720Z,100952.91
2024-01-24T21:33:04.381Z,100952.38
2024-01-24T21:35:30.911Z,100944.28
2024-01-24T21:37:57.549Z,100961.97
2024-01-24T21:40:24.242Z,100958.63
2024-01-24T21:42:51.503Z,100964.22
2024-01-24T21:45:19.145Z,100964.78
2024-01-24T21:47:45.733Z,100949.22
2024-01-24T21:50:12.965Z,100976.22
2024-01-24T21:52:39.577Z,100967.56
2024-01-24T21:55:07.537Z,100970.94
2024-01-24T21:57:34.400Z,100965.13
2024-01-24T22:00:01.794Z,100972.13
2024-01-24T22:02:30.275Z,100959.59
2024-01-24T22:04:56.791Z,100986.16
2024-01-24T22:07:23.477Z,100964.78
2024-01-24T22:09:52.479Z,101002.78
2024-01-24T22:12:19.133Z,100981.94
2024-01-24T22:14:45.689Z,100995.25
2024-01-24T22:17:12.726Z,100999.78
2024-01-24T22:19:39.350Z,101001.31
2024-01-24T22:22:06.259Z,100979.91
2024-01-24T22:24:33.041Z,100988.13
2024-01-24T22:26:59.635Z,100973.22
2024-01-24T22:29:26.200Z,100993.28
2024-01-24T22:31:54.616Z,100974.50
2024-01-24T22:34:22.548Z,100980.78
2024-01-24T22:36:49.305Z,101000.72
2024-01-24T22:39:16.258Z,101011.44
2024-01-24T22:41:43.026Z,101004.09
2024-01-24T22:44:11.150Z,100998.25
2024-01-24T22:46:43.312Z,101009.47
2024-01-24T22:49:11.422Z,100999.56
2024-01-24T22:51:39.077Z,101013.34
2024-01-24T22:54:05.788Z,101008.91
2024-01-24T22:56:32.364Z,101009.66
2024-01-24T22:59:00.499Z,101018.28
2024-01-24T23:01:28.852Z,101017.88
2024-01-24T23:03:55.733Z,101016.47
2024-01-24T23:06:22.867Z,101013.75
2024-01-24T23:08:49.484Z,101002.09
2024-01-24T23:11:16.189Z,101004.06
2024-01-24T23:13:42.750Z,100998.53
2024-01-24T23:16:09.426Z,100990.44
2024-01-24T23:18:36.379Z,100999.53
2024-01-24T23:21:03.108Z,101004.91
2024-01-24T23:23:29.616Z,100994.34
2024-01-24T23:25:56.292Z,101007.28
2024-01-24T23:28:23.883Z,101011.72
2024-01-24T23:30:50.704Z,101011.50
2024-01-24T23:33:17.509Z,101023.69
2024-01-24T23:35:44.761Z,101008.38
2024-01-24T23:38:11.587Z,101026.06
2024-01-24T23:40:38.226Z,101035.00
2024-01-24T23:43:05.000Z,101035.34
2024-01-24T23:45:39.037Z,101006.88
2024-01-24T23:48:06.071Z,101040.00
2024-01-24T23:50:32.945Z,101038.28
2024-01-24T23:53:00.577Z,101038.59
2024-01-24T23:55:27.558Z,101044.19
2024-01-24T23:57:57.335Z,101042.16
